sensor_id;sensor_type;location;lat;lon;timestamp;pressure;altitude;pressure_sealevel;temperature;humidity
2397;BME280;1209;48.410;9.054;2023-09-19T00:01:06;95954.50;;;16.47;100.00
2397;BME280;1209;48.410;9.054;2023-09-19T00:03:36;95950.41;;;16.51;100.00
2397;BME280;1209;48.410;9.054;2023-09-19T00:06:03;95942.69;;;16.49;100.00
2397;BME280;1209;48.410;9.054;2023-09-19T00:08:30;95949.00;;;16.48;100.00
2397;BME280;1209;48.410;9.054;2023-09-19T00:10:55;95954.63;;;16.52;100.00
2397;BME280;1209;48.410;9.054;2023-09-19T00:13:21;95950.03;;;16.47;100.00
2397;BME280;1209;48.410;9.054;2023-09-19T00:15:48;95956.09;;;16.48;100.00
2397;BME280;1209;48.410;9.054;2023-09-19T00:18:14;95958.22;;;16.39;100.00
2397;BME280;1209;48.410;9.054;2023-09-19T00:20:41;95950.69;;;16.43;100.00
2397;BME280;1209;48.410;9.054;2023-09-19T00:23:07;95957.56;;;16.44;100.00
2397;BME280;1209;48.410;9.054;2023-09-19T00:25:36;95961.22;;;16.43;100.00
2397;BME280;1209;48.410;9.054;2023-09-19T00:28:03;95957.78;;;16.42;100.00
2397;BME280;1209;48.410;9.054;2023-09-19T00:30:28;95960.41;;;16.42;100.00
2397;BME280;1209;48.410;9.054;2023-09-19T00:32:54;95947.47;;;16.41;100.00
2397;BME280;1209;48.410;9.054;2023-09-19T00:35:20;95959.41;;;16.43;100.00
2397;BME280;1209;48.410;9.054;2023-09-19T00:37:45;95953.81;;;16.33;100.00
2397;BME280;1209;48.410;9.054;2023-09-19T00:40:11;95953.81;;;16.33;100.00
2397;BME280;1209;48.410;9.054;2023-09-19T00:42:41;95952.38;;;16.37;100.00
2397;BME280;1209;48.410;9.054;2023-09-19T00:45:08;95957.56;;;16.44;100.00
2397;BME280;1209;48.410;9.054;2023-09-19T00:47:41;95957.56;;;16.44;100.00
2397;BME280;1209;48.410;9.054;2023-09-19T00:50:08;95950.91;;;16.41;100.00
2397;BME280;1209;48.410;9.054;2023-09-19T00:52:34;95957.84;;;16.35;100.00
2397;BME280;1209;48.410;9.054;2023-09-19T00:55:05;95953.03;;;16.32;100.00
2397;BME280;1209;48.410;9.054;2023-09-19T00:57:32;95949.00;;;16.30;100.00
2397;BME280;1209;48.410;9.054;2023-09-19T00:59:58;95955.06;;;16.30;100.00
2397;BME280;1209;48.410;9.054;2023-09-19T01:02:25;95955.66;;;16.32;100.00
2397;BME280;1209;48.410;9.054;2023-09-19T01:04:54;95960.34;;;16.30;100.00
2397;BME280;1209;48.410;9.054;2023-09-19T01:07:20;95959.91;;;16.33;100.00
2397;BME280;1209;48.410;9.054;2023-09-19T01:09:46;95964.16;;;16.34;100.00
2397;BME280;1209;48.410;9.054;2023-09-19T01:12:13;95952.66;;;16.29;100.00
2397;BME280;1209;48.410;9.054;2023-09-19T01:14:53;95955.88;;;16.31;100.00
2397;BME280;1209;48.410;9.054;2023-09-19T01:17:30;95959.69;;;16.35;100.00
2397;BME280;1209;48.410;9.054;2023-09-19T01:22:53;95956.91;;;16.30;100.00
2397;BME280;1209;48.410;9.054;2023-09-19T01:26:23;95962.91;;;16.37;100.00
2397;BME280;1209;48.410;9.054;2023-09-19T01:31:04;95961.66;;;16.40;100.00
2397;BME280;1209;48.410;9.054;2023-09-19T01:33:53;95962.03;;;16.43;100.00
2397;BME280;1209;48.410;9.054;2023-09-19T01:36:22;95961.97;;;16.50;100.00
2397;BME280;1209;48.410;9.054;2023-09-19T01:38:48;95968.25;;;16.49;100.00
2397;BME280;1209;48.410;9.054;2023-09-19T01:41:17;95970.31;;;16.47;100.00
2397;BME280;1209;48.410;9.054;2023-09-19T01:43:49;95971.91;;;16.48;100.00
2397;BME280;1209;48.410;9.054;2023-09-19T01:46:18;95978.81;;;16.49;100.00
2397;BME280;1209;48.410;9.054;2023-09-19T01:51:21;95976.81;;;16.44;100.00
2397;BME280;1209;48.410;9.054;2023-09-19T01:53:53;95978.06;;;16.42;100.00
2397;BME280;1209;48.410;9.054;2023-09-19T01:56:32;95983.34;;;16.42;100.00
2397;BME280;1209;48.410;9.054;2023-09-19T01:59:04;95985.16;;;16.41;100.00
2397;BME280;1209;48.410;9.054;2023-09-19T02:01:31;95989.41;;;16.42;100.00
2397;BME280;1209;48.410;9.054;2023-09-19T02:03:57;95997.53;;;16.41;100.00
2397;BME280;1209;48.410;9.054;2023-09-19T02:06:23;95997.38;;;16.35;100.00
2397;BME280;1209;48.410;9.054;2023-09-19T02:08:52;96000.03;;;16.35;100.00
2397;BME280;1209;48.410;9.054;2023-09-19T02:11:18;95999.88;;;16.30;100.00
2397;BME280;1209;48.410;9.054;2023-09-19T02:13:44;96002.56;;;16.24;100.00
2397;BME280;1209;48.410;9.054;2023-09-19T02:16:09;96007.63;;;16.25;100.00
2397;BME280;1209;48.410;9.054;2023-09-19T02:18:36;96007.84;;;16.24;100.00
2397;BME280;1209;48.410;9.054;2023-09-19T02:21:01;96009.88;;;16.22;100.00
2397;BME280;1209;48.410;9.054;2023-09-19T02:23:27;96023.50;;;16.19;100.00
2397;BME280;1209;48.410;9.054;2023-09-19T02:25:53;96027.38;;;16.16;100.00
2397;BME280;1209;48.410;9.054;2023-09-19T02:28:19;96021.28;;;16.16;100.00
2397;BME280;1209;48.410;9.054;2023-09-19T02:30:47;96022.69;;;16.18;100.00
2397;BME280;1209;48.410;9.054;2023-09-19T02:33:13;96020.09;;;16.12;100.00
2397;BME280;1209;48.410;9.054;2023-09-19T02:35:39;96026.94;;;16.19;100.00
2397;BME280;1209;48.410;9.054;2023-09-19T02:38:04;96023.72;;;16.17;100.00
2397;BME280;1209;48.410;9.054;2023-09-19T02:40:31;96021.06;;;16.17;100.00
2397;BME280;1209;48.410;9.054;2023-09-19T02:42:56;96017.47;;;16.12;100.00
2397;BME280;1209;48.410;9.054;2023-09-19T02:45:24;96020.53;;;16.09;100.00
2397;BME280;1209;48.410;9.054;2023-09-19T02:47:50;96019.63;;;16.21;100.00
2397;BME280;1209;48.410;9.054;2023-09-19T02:50:16;96007.31;;;16.15;100.00
2397;BME280;1209;48.410;9.054;2023-09-19T02:52:43;96012.00;;;16.13;100.00
2397;BME280;1209;48.410;9.054;2023-09-19T02:55:09;96026.34;;;16.17;100.00
2397;BME280;1209;48.410;9.054;2023-09-19T02:57:38;96025.47;;;16.23;100.00
2397;BME280;1209;48.410;9.054;2023-09-19T03:00:09;96021.00;;;16.24;100.00
2397;BME280;1209;48.410;9.054;2023-09-19T03:02:37;96021.81;;;16.24;100.00
2397;BME280;1209;48.410;9.054;2023-09-19T03:05:05;96021.16;;;16.29;100.00
2397;BME280;1209;48.410;9.054;2023-09-19T03:07:31;96021.09;;;16.35;100.00
2397;BME280;1209;48.410;9.054;2023-09-19T03:09:56;96027.63;;;16.33;100.00
2397;BME280;1209;48.410;9.054;2023-09-19T03:12:21;96016.22;;;16.39;100.00
2397;BME280;1209;48.410;9.054;2023-09-19T03:14:47;96026.47;;;16.47;100.00
2397;BME280;1209;48.410;9.054;2023-09-19T03:17:13;96030.72;;;16.48;100.00
2397;BME280;1209;48.410;9.054;2023-09-19T03:19:40;96039.59;;;16.54;100.00
2397;BME280;1209;48.410;9.054;2023-09-19T03:22:05;96040.78;;;16.58;100.00
2397;BME280;1209;48.410;9.054;2023-09-19T03:24:30;96054.19;;;16.56;100.00
2397;BME280;1209;48.410;9.054;2023-09-19T03:26:57;96045.63;;;16.61;100.00
2397;BME280;1209;48.410;9.054;2023-09-19T03:29:22;96050.53;;;16.57;100.00
2397;BME280;1209;48.410;9.054;2023-09-19T03:31:48;96051.56;;;16.56;100.00
2397;BME280;1209;48.410;9.054;2023-09-19T03:34:13;96042.84;;;16.56;100.00
2397;BME280;1209;48.410;9.054;2023-09-19T03:36:38;96052.94;;;16.59;100.00
2397;BME280;1209;48.410;9.054;2023-09-19T03:39:04;96043.03;;;16.54;100.00
2397;BME280;1209;48.410;9.054;2023-09-19T03:41:31;96047.13;;;16.50;100.00
2397;BME280;1209;48.410;9.054;2023-09-19T03:43:56;96052.19;;;16.52;100.00
2397;BME280;1209;48.410;9.054;2023-09-19T03:46:22;96051.81;;;16.48;100.00
2397;BME280;1209;48.410;9.054;2023-09-19T03:48:47;96055.41;;;16.54;100.00
2397;BME280;1209;48.410;9.054;2023-09-19T03:51:12;96059.88;;;16.53;100.00
2397;BME280;1209;48.410;9.054;2023-09-19T03:53:37;96058.47;;;16.51;100.00
2397;BME280;1209;48.410;9.054;2023-09-19T03:56:03;96067.97;;;16.58;100.00
2397;BME280;1209;48.410;9.054;2023-09-19T03:58:28;96066.97;;;16.53;100.00
2397;BME280;1209;48.410;9.054;2023-09-19T04:00:57;96071.72;;;16.44;100.00
2397;BME280;1209;48.410;9.054;2023-09-19T04:03:23;96064.19;;;16.48;100.00
2397;BME280;1209;48.410;9.054;2023-09-19T04:05:50;96066.81;;;16.48;100.00
2397;BME280;1209;48.410;9.054;2023-09-19T04:08:15;96062.69;;;16.58;100.00
2397;BME280;1209;48.410;9.054;2023-09-19T04:10:43;96065.72;;;16.55;100.00
2397;BME280;1209;48.410;9.054;2023-09-19T04:13:10;96065.16;;;16.53;100.00
2397;BME280;1209;48.410;9.054;2023-09-19T04:15:36;96062.72;;;16.52;100.00
2397;BME280;1209;48.410;9.054;2023-09-19T04:18:03;96066.38;;;16.51;100.00
2397;BME280;1209;48.410;9.054;2023-09-19T04:20:28;96062.50;;;16.53;100.00
2397;BME280;1209;48.410;9.054;2023-09-19T04:22:54;96052.41;;;16.50;100.00
2397;BME280;1209;48.410;9.054;2023-09-19T04:25:19;96052.19;;;16.52;100.00
2397;BME280;1209;48.410;9.054;2023-09-19T04:27:45;96051.22;;;16.46;100.00
2397;BME280;1209;48.410;9.054;2023-09-19T04:30:11;96048.59;;;16.46;100.00
2397;BME280;1209;48.410;9.054;2023-09-19T04:32:38;96048.22;;;16.43;100.00
2397;BME280;1209;48.410;9.054;2023-09-19T04:35:08;96054.88;;;16.45;100.00
2397;BME280;1209;48.410;9.054;2023-09-19T04:37:38;96059.41;;;16.38;100.00
2397;BME280;1209;48.410;9.054;2023-09-19T04:40:07;96060.31;;;16.25;100.00
2397;BME280;1209;48.410;9.054;2023-09-19T04:42:37;96060.53;;;16.24;100.00
2397;BME280;1209;48.410;9.054;2023-09-19T04:45:03;96068.50;;;16.17;100.00
2397;BME280;1209;48.410;9.054;2023-09-19T04:47:30;96071.59;;;16.08;100.00
2397;BME280;1209;48.410;9.054;2023-09-19T04:49:55;96079.31;;;16.02;100.00
2397;BME280;1209;48.410;9.054;2023-09-19T04:52:22;96071.47;;;15.96;100.00
2397;BME280;1209;48.410;9.054;2023-09-19T04:54:47;96085.66;;;15.95;100.00
2397;BME280;1209;48.410;9.054;2023-09-19T04:57:13;96077.41;;;15.85;100.00
2397;BME280;1209;48.410;9.054;2023-09-19T04:59:38;96089.19;;;15.82;100.00
2397;BME280;1209;48.410;9.054;2023-09-19T05:02:06;96093.59;;;15.88;100.00
2397;BME280;1209;48.410;9.054;2023-09-19T05:04:33;96090.00;;;15.83;100.00
2397;BME280;1209;48.410;9.054;2023-09-19T05:06:58;96088.97;;;15.84;100.00
2397;BME280;1209;48.410;9.054;2023-09-19T05:09:23;96080.81;;;15.92;100.00
2397;BME280;1209;48.410;9.054;2023-09-19T05:11:49;96091.34;;;15.92;100.00
2397;BME280;1209;48.410;9.054;2023-09-19T05:14:16;96092.75;;;15.94;100.00
2397;BME280;1209;48.410;9.054;2023-09-19T05:16:41;96095.75;;;15.98;100.00
2397;BME280;1209;48.410;9.054;2023-09-19T05:19:08;96100.22;;;15.97;100.00
2397;BME280;1209;48.410;9.054;2023-09-19T05:21:36;96100.00;;;15.99;100.00
2397;BME280;1209;48.410;9.054;2023-09-19T05:24:06;96096.03;;;15.90;100.00
2397;BME280;1209;48.410;9.054;2023-09-19T05:26:32;96098.63;;;15.96;100.00
2397;BME280;1209;48.410;9.054;2023-09-19T05:28:58;96099.41;;;15.97;100.00
2397;BME280;1209;48.410;9.054;2023-09-19T05:31:23;96100.78;;;16.06;100.00
2397;BME280;1209;48.410;9.054;2023-09-19T05:33:49;96107.84;;;16.12;100.00
2397;BME280;1209;48.410;9.054;2023-09-19T05:36:15;96110.22;;;16.20;100.00
2397;BME280;1209;48.410;9.054;2023-09-19T05:38:42;96106.41;;;16.16;100.00
2397;BME280;1209;48.410;9.054;2023-09-19T05:41:08;96114.06;;;16.24;100.00
2397;BME280;1209;48.410;9.054;2023-09-19T05:43:35;96107.88;;;16.37;100.00
2397;BME280;1209;48.410;9.054;2023-09-19T05:46:02;96119.59;;;16.41;100.00
2397;BME280;1209;48.410;9.054;2023-09-19T05:48:28;96124.31;;;16.32;100.00
2397;BME280;1209;48.410;9.054;2023-09-19T05:50:53;96131.84;;;16.29;100.00
2397;BME280;1209;48.410;9.054;2023-09-19T05:53:19;96138.75;;;16.30;100.00
2397;BME280;1209;48.410;9.054;2023-09-19T05:55:44;96145.28;;;16.21;100.00
2397;BME280;1209;48.410;9.054;2023-09-19T05:58:10;96145.47;;;16.26;100.00
2397;BME280;1209;48.410;9.054;2023-09-19T06:00:39;96149.72;;;16.27;100.00
2397;BME280;1209;48.410;9.054;2023-09-19T06:03:07;96146.84;;;16.28;100.00
2397;BME280;1209;48.410;9.054;2023-09-19T06:05:33;96150.56;;;16.21;100.00
2397;BME280;1209;48.410;9.054;2023-09-19T06:07:58;96151.31;;;16.28;100.00
2397;BME280;1209;48.410;9.054;2023-09-19T06:10:28;96161.47;;;16.24;100.00
2397;BME280;1209;48.410;9.054;2023-09-19T06:12:54;96167.78;;;16.23;100.00
2397;BME280;1209;48.410;9.054;2023-09-19T06:15:20;96165.56;;;16.20;100.00
2397;BME280;1209;48.410;9.054;2023-09-19T06:17:53;96170.56;;;16.28;100.00
2397;BME280;1209;48.410;9.054;2023-09-19T06:20:22;96170.41;;;16.23;100.00
2397;BME280;1209;48.410;9.054;2023-09-19T06:22:49;96179.28;;;16.29;100.00
2397;BME280;1209;48.410;9.054;2023-09-19T06:25:15;96170.41;;;16.23;100.00
2397;BME280;1209;48.410;9.054;2023-09-19T06:27:42;96178.09;;;16.25;100.00
2397;BME280;1209;48.410;9.054;2023-09-19T06:30:08;96184.34;;;16.30;100.00
2397;BME280;1209;48.410;9.054;2023-09-19T06:32:34;96183.88;;;16.40;100.00
2397;BME280;1209;48.410;9.054;2023-09-19T06:34:59;96185.28;;;16.43;100.00
2397;BME280;1209;48.410;9.054;2023-09-19T06:37:28;96186.94;;;16.37;100.00
2397;BME280;1209;48.410;9.054;2023-09-19T06:39:53;96189.53;;;16.44;100.00
2397;BME280;1209;48.410;9.054;2023-09-19T06:42:19;96193.75;;;16.51;100.00
2397;BME280;1209;48.410;9.054;2023-09-19T06:44:44;96193.53;;;16.53;100.00
2397;BME280;1209;48.410;9.054;2023-09-19T06:47:09;96202.81;;;16.62;100.00
2397;BME280;1209;48.410;9.054;2023-09-19T06:49:36;96202.53;;;16.77;100.00
2397;BME280;1209;48.410;9.054;2023-09-19T06:52:02;96211.41;;;16.82;100.00
2397;BME280;1209;48.410;9.054;2023-09-19T06:54:28;96208.94;;;16.87;100.00
2397;BME280;1209;48.410;9.054;2023-09-19T06:56:57;96213.19;;;16.88;100.00
2397;BME280;1209;48.410;9.054;2023-09-19T06:59:23;96215.34;;;16.98;100.00
2397;BME280;1209;48.410;9.054;2023-09-19T07:01:49;96214.31;;;16.99;100.00
2397;BME280;1209;48.410;9.054;2023-09-19T07:04:16;96223.59;;;17.08;100.00
2397;BME280;1209;48.410;9.054;2023-09-19T07:06:42;96219.06;;;17.15;100.00
2397;BME280;1209;48.410;9.054;2023-09-19T07:09:08;96226.53;;;17.18;100.00
2397;BME280;1209;48.410;9.054;2023-09-19T07:11:33;96220.03;;;17.21;100.00
2397;BME280;1209;48.410;9.054;2023-09-19T07:13:59;96222.06;;;17.19;100.00
2397;BME280;1209;48.410;9.054;2023-09-19T07:16:24;96222.06;;;17.19;100.00
2397;BME280;1209;48.410;9.054;2023-09-19T07:18:54;96220.84;;;17.21;100.00
2397;BME280;1209;48.410;9.054;2023-09-19T07:21:22;96223.34;;;17.35;100.00
2397;BME280;1209;48.410;9.054;2023-09-19T07:23:47;96234.28;;;17.38;100.00
2397;BME280;1209;48.410;9.054;2023-09-19T07:26:13;96228.72;;;17.46;100.00
2397;BME280;1209;48.410;9.054;2023-09-19T07:28:38;96240.47;;;17.50;100.00
2397;BME280;1209;48.410;9.054;2023-09-19T07:31:03;96233.44;;;17.62;100.00
2397;BME280;1209;48.410;9.054;2023-09-19T07:33:30;96233.81;;;17.66;100.00
2397;BME280;1209;48.410;9.054;2023-09-19T07:35:55;96250.34;;;17.80;100.00
2397;BME280;1209;48.410;9.054;2023-09-19T07:38:20;96251.75;;;17.82;100.00
2397;BME280;1209;48.410;9.054;2023-09-19T07:40:46;96254.22;;;17.77;100.00
2397;BME280;1209;48.410;9.054;2023-09-19T07:43:11;96262.22;;;17.89;100.00
2397;BME280;1209;48.410;9.054;2023-09-19T07:45:37;96260.50;;;18.01;100.00
2397;BME280;1209;48.410;9.054;2023-09-19T07:48:02;96265.63;;;18.14;100.00
2397;BME280;1209;48.410;9.054;2023-09-19T07:50:33;96269.56;;;18.23;100.00
2397;BME280;1209;48.410;9.054;2023-09-19T07:53:02;96270.22;;;18.19;100.00
2397;BME280;1209;48.410;9.054;2023-09-19T07:55:30;96282.22;;;18.03;100.00
2397;BME280;1209;48.410;9.054;2023-09-19T07:57:55;96277.16;;;18.02;100.00
2397;BME280;1209;48.410;9.054;2023-09-19T08:00:21;96279.03;;;17.94;100.00
2397;BME280;1209;48.410;9.054;2023-09-19T08:02:46;96283.28;;;17.77;100.00
2397;BME280;1209;48.410;9.054;2023-09-19T08:05:13;96288.75;;;17.57;100.00
2397;BME280;1209;48.410;9.054;2023-09-19T08:07:43;96293.00;;;17.58;100.00
2397;BME280;1209;48.410;9.054;2023-09-19T08:10:09;96291.66;;;17.49;100.00
2397;BME280;1209;48.410;9.054;2023-09-19T08:12:42;96293.47;;;17.49;100.00
2397;BME280;1209;48.410;9.054;2023-09-19T08:15:20;96308.09;;;17.51;100.00
2397;BME280;1209;48.410;9.054;2023-09-19T08:17:45;96298.88;;;17.60;100.00
2397;BME280;1209;48.410;9.054;2023-09-19T08:20:12;96302.13;;;17.62;100.00
2397;BME280;1209;48.410;9.054;2023-09-19T08:22:50;96306.56;;;17.69;100.00
2397;BME280;1209;48.410;9.054;2023-09-19T08:25:17;96308.97;;;17.70;100.00
2397;BME280;1209;48.410;9.054;2023-09-19T08:27:43;96310.16;;;17.74;100.00
2397;BME280;1209;48.410;9.054;2023-09-19T08:30:13;96314.25;;;17.70;100.00
2397;BME280;1209;48.410;9.054;2023-09-19T08:32:39;96313.38;;;17.76;100.00
2397;BME280;1209;48.410;9.054;2023-09-19T08:35:06;96320.97;;;17.66;100.00
2397;BME280;1209;48.410;9.054;2023-09-19T08:37:32;96327.69;;;17.69;100.00
2397;BME280;1209;48.410;9.054;2023-09-19T08:39:57;96327.25;;;17.72;100.00
2397;BME280;1209;48.410;9.054;2023-09-19T08:42:22;96330.09;;;18.13;100.00
2397;BME280;1209;48.410;9.054;2023-09-19T08:44:50;96331.25;;;18.17;100.00
2397;BME280;1209;48.410;9.054;2023-09-19T08:47:16;96332.06;;;18.36;100.00
2397;BME280;1209;48.410;9.054;2023-09-19T08:49:56;96339.09;;;18.79;100.00
2397;BME280;1209;48.410;9.054;2023-09-19T08:52:28;96330.88;;;18.99;100.00
2397;BME280;1209;48.410;9.054;2023-09-19T08:54:59;96337.28;;;19.21;100.00
2397;BME280;1209;48.410;9.054;2023-09-19T08:57:33;96336.94;;;19.29;100.00
2397;BME280;1209;48.410;9.054;2023-09-19T09:00:02;96334.03;;;19.61;100.00
2397;BME280;1209;48.410;9.054;2023-09-19T09:02:31;96336.34;;;19.57;100.00
2397;BME280;1209;48.410;9.054;2023-09-19T09:04:59;96336.47;;;19.97;100.00
2397;BME280;1209;48.410;9.054;2023-09-19T09:07:25;96337.13;;;20.16;100.00
2397;BME280;1209;48.410;9.054;2023-09-19T09:09:52;96340.47;;;20.23;100.00
2397;BME280;1209;48.410;9.054;2023-09-19T09:12:18;96340.91;;;20.55;100.00
2397;BME280;1209;48.410;9.054;2023-09-19T09:14:45;96335.06;;;20.41;100.00
2397;BME280;1209;48.410;9.054;2023-09-19T09:17:14;96338.47;;;20.54;100.00
2397;BME280;1209;48.410;9.054;2023-09-19T09:19:39;96351.41;;;20.38;100.00
2397;BME280;1209;48.410;9.054;2023-09-19T09:22:11;96344.69;;;20.59;100.00
2397;BME280;1209;48.410;9.054;2023-09-19T09:24:37;96342.28;;;21.15;100.00
2397;BME280;1209;48.410;9.054;2023-09-19T09:27:05;96345.09;;;21.53;100.00
2397;BME280;1209;48.410;9.054;2023-09-19T09:29:44;96345.81;;;21.32;100.00
2397;BME280;1209;48.410;9.054;2023-09-19T09:32:28;96340.69;;;20.85;100.00
2397;BME280;1209;48.410;9.054;2023-09-19T09:34:59;96336.91;;;20.41;100.00
2397;BME280;1209;48.410;9.054;2023-09-19T09:37:26;96346.59;;;20.00;100.00
2397;BME280;1209;48.410;9.054;2023-09-19T09:39:57;96343.72;;;19.67;100.00
2397;BME280;1209;48.410;9.054;2023-09-19T09:42:33;96342.09;;;19.66;100.00
2397;BME280;1209;48.410;9.054;2023-09-19T09:45:19;96343.28;;;19.93;100.00
2397;BME280;1209;48.410;9.054;2023-09-19T09:47:53;96343.47;;;19.68;100.00
2397;BME280;1209;48.410;9.054;2023-09-19T09:50:32;96344.19;;;19.34;100.00
2397;BME280;1209;48.410;9.054;2023-09-19T09:53:30;96337.94;;;19.81;100.00
2397;BME280;1209;48.410;9.054;2023-09-19T09:56:00;96334.59;;;20.09;100.00
2397;BME280;1209;48.410;9.054;2023-09-19T09:58:27;96330.09;;;20.22;100.00
2397;BME280;1209;48.410;9.054;2023-09-19T10:00:56;96330.31;;;20.43;100.00
2397;BME280;1209;48.410;9.054;2023-09-19T10:03:31;96327.91;;;20.42;100.00
2397;BME280;1209;48.410;9.054;2023-09-19T10:05:57;96323.84;;;20.80;100.00
2397;BME280;1209;48.410;9.054;2023-09-19T10:08:23;96323.44;;;21.16;100.00
2397;BME280;1209;48.410;9.054;2023-09-19T10:10:49;96314.63;;;21.61;96.90
2397;BME280;1209;48.410;9.054;2023-09-19T10:13:19;96310.69;;;21.80;96.42
2397;BME280;1209;48.410;9.054;2023-09-19T10:15:50;96327.81;;;22.06;93.79
2397;BME280;1209;48.410;9.054;2023-09-19T10:18:24;96316.38;;;21.72;92.04
2397;BME280;1209;48.410;9.054;2023-09-19T10:20:49;96315.09;;;21.75;94.61
2397;BME280;1209;48.410;9.054;2023-09-19T10:23:17;96314.16;;;21.64;94.51
2397;BME280;1209;48.410;9.054;2023-09-19T10:25:47;96318.88;;;21.95;96.20
2397;BME280;1209;48.410;9.054;2023-09-19T10:28:15;96306.75;;;22.21;89.93
2397;BME280;1209;48.410;9.054;2023-09-19T10:33:12;96321.53;;;22.12;83.03
2397;BME280;1209;48.410;9.054;2023-09-19T10:35:39;96303.72;;;22.35;87.92
2397;BME280;1209;48.410;9.054;2023-09-19T10:38:06;96307.72;;;22.59;85.01
2397;BME280;1209;48.410;9.054;2023-09-19T10:40:35;96306.00;;;22.48;84.64
2397;BME280;1209;48.410;9.054;2023-09-19T10:43:03;96305.31;;;23.06;89.73
2397;BME280;1209;48.410;9.054;2023-09-19T10:45:33;96308.22;;;23.32;85.04
2397;BME280;1209;48.410;9.054;2023-09-19T10:48:00;96315.59;;;23.51;80.83
2397;BME280;1209;48.410;9.054;2023-09-19T10:50:30;96312.34;;;23.44;79.02
2397;BME280;1209;48.410;9.054;2023-09-19T10:52:59;96315.44;;;23.63;81.85
2397;BME280;1209;48.410;9.054;2023-09-19T10:55:30;96314.75;;;23.46;84.39
2397;BME280;1209;48.410;9.054;2023-09-19T10:57:56;96320.50;;;23.65;83.35
2397;BME280;1209;48.410;9.054;2023-09-19T11:00:53;96313.19;;;23.82;81.82
2397;BME280;1209;48.410;9.054;2023-09-19T11:03:20;96308.31;;;23.74;79.17
2397;BME280;1209;48.410;9.054;2023-09-19T11:06:24;96309.75;;;23.86;80.46
2397;BME280;1209;48.410;9.054;2023-09-19T11:08:54;96299.22;;;23.38;80.10
2397;BME280;1209;48.410;9.054;2023-09-19T11:11:42;96297.56;;;23.32;80.60
2397;BME280;1209;48.410;9.054;2023-09-19T11:30:42;96288.91;;;22.87;85.38
2397;BME280;1209;48.410;9.054;2023-09-19T11:33:32;96290.97;;;22.80;86.12
2397;BME280;1209;48.410;9.054;2023-09-19T11:46:30;96277.84;;;22.52;81.55
2397;BME280;1209;48.410;9.054;2023-09-19T11:49:05;96279.66;;;22.46;83.09
2397;BME280;1209;48.410;9.054;2023-09-19T11:51:44;96272.00;;;22.55;81.87
2397;BME280;1209;48.410;9.054;2023-09-19T11:54:16;96271.22;;;22.54;81.01
2397;BME280;1209;48.410;9.054;2023-09-19T11:56:45;96273.44;;;22.19;82.46
2397;BME280;1209;48.410;9.054;2023-09-19T11:59:11;96272.41;;;22.20;83.35
2397;BME280;1209;48.410;9.054;2023-09-19T12:01:38;96263.03;;;21.95;84.84
2397;BME280;1209;48.410;9.054;2023-09-19T12:04:11;96260.78;;;21.87;86.63
2397;BME280;1209;48.410;9.054;2023-09-19T12:06:36;96258.88;;;21.83;87.71
2397;BME280;1209;48.410;9.054;2023-09-19T12:09:04;96268.00;;;21.53;84.76
2397;BME280;1209;48.410;9.054;2023-09-19T12:11:32;96262.63;;;21.48;85.04
2397;BME280;1209;48.410;9.054;2023-09-19T12:13:59;96263.28;;;21.39;85.91
2397;BME280;1209;48.410;9.054;2023-09-19T12:16:26;96259.00;;;21.38;85.86
2397;BME280;1209;48.410;9.054;2023-09-19T12:18:55;96254.41;;;21.50;81.11
2397;BME280;1209;48.410;9.054;2023-09-19T12:21:26;96254.59;;;21.82;82.13
2397;BME280;1209;48.410;9.054;2023-09-19T12:26:39;96249.00;;;22.22;79.96
2397;BME280;1209;48.410;9.054;2023-09-19T12:29:19;96242.28;;;22.36;79.07
2397;BME280;1209;48.410;9.054;2023-09-19T12:34:25;96243.94;;;22.42;78.59
2397;BME280;1209;48.410;9.054;2023-09-19T12:37:26;96243.03;;;22.58;74.92
2397;BME280;1209;48.410;9.054;2023-09-19T12:40:04;96244.25;;;22.73;63.87
2397;BME280;1209;48.410;9.054;2023-09-19T12:42:41;96247.19;;;22.98;67.81
2397;BME280;1209;48.410;9.054;2023-09-19T12:45:07;96243.75;;;23.03;67.83
2397;BME280;1209;48.410;9.054;2023-09-19T12:47:34;96238.44;;;23.03;67.08
2397;BME280;1209;48.410;9.054;2023-09-19T12:50:15;96240.63;;;22.57;65.04
2397;BME280;1209;48.410;9.054;2023-09-19T12:52:51;96235.28;;;22.57;70.51
2397;BME280;1209;48.410;9.054;2023-09-19T12:55:24;96238.94;;;22.73;70.79
2397;BME280;1209;48.410;9.054;2023-09-19T12:58:09;96237.06;;;23.00;73.36
2397;BME280;1209;48.410;9.054;2023-09-19T13:00:41;96232.22;;;22.92;72.03
2397;BME280;1209;48.410;9.054;2023-09-19T13:03:18;96229.03;;;22.95;72.46
2397;BME280;1209;48.410;9.054;2023-09-19T13:05:49;96227.91;;;22.86;73.26
2397;BME280;1209;48.410;9.054;2023-09-19T13:11:14;96227.22;;;22.47;75.89
2397;BME280;1209;48.410;9.054;2023-09-19T13:19:48;96214.63;;;22.91;73.25
2397;BME280;1209;48.410;9.054;2023-09-19T13:22:45;96222.63;;;22.91;70.62
2397;BME280;1209;48.410;9.054;2023-09-19T13:25:16;96219.66;;;22.87;71.07
2397;BME280;1209;48.410;9.054;2023-09-19T13:27:53;96205.97;;;22.79;73.99
2397;BME280;1209;48.410;9.054;2023-09-19T13:30:22;96203.78;;;22.71;76.66
2397;BME280;1209;48.410;9.054;2023-09-19T13:32:48;96206.34;;;22.66;74.37
2397;BME280;1209;48.410;9.054;2023-09-19T13:35:14;96204.25;;;22.68;77.75
2397;BME280;1209;48.410;9.054;2023-09-19T13:37:41;96205.72;;;22.53;76.20
2397;BME280;1209;48.410;9.054;2023-09-19T13:42:34;96203.00;;;22.48;73.41
2397;BME280;1209;48.410;9.054;2023-09-19T13:44:59;96200.25;;;22.38;74.93
2397;BME280;1209;48.410;9.054;2023-09-19T13:47:25;96191.41;;;22.33;77.97
2397;BME280;1209;48.410;9.054;2023-09-19T13:49:52;96188.81;;;22.16;79.69
2397;BME280;1209;48.410;9.054;2023-09-19T13:52:21;96191.28;;;22.00;87.28
2397;BME280;1209;48.410;9.054;2023-09-19T13:54:49;96200.81;;;21.96;92.78
2397;BME280;1209;48.410;9.054;2023-09-19T13:57:15;96194.06;;;21.89;87.55
2397;BME280;1209;48.410;9.054;2023-09-19T13:59:41;96187.44;;;21.91;89.60
2397;BME280;1209;48.410;9.054;2023-09-19T14:02:06;96183.22;;;21.95;91.31
2397;BME280;1209;48.410;9.054;2023-09-19T14:04:32;96185.94;;;22.00;91.72
2397;BME280;1209;48.410;9.054;2023-09-19T14:07:00;96190.81;;;22.04;93.51
2397;BME280;1209;48.410;9.054;2023-09-19T14:09:25;96193.00;;;21.90;89.30
2397;BME280;1209;48.410;9.054;2023-09-19T14:11:51;96188.19;;;21.87;90.92
2397;BME280;1209;48.410;9.054;2023-09-19T14:14:18;96196.16;;;21.87;91.26